Time;durP1;ratioP1;P1;durP2;ratioP2;P2;SDS_P1;SDS_P2;PMS_P1;PMS_P2;Temp;Humidity;BMP_temperature;BMP_pressure;BME280_temperature;BME280_humidity;BME280_pressure;Samples;Min_cycle;Max_cycle;Signal;HPM_P1;HPM_P2
2022/05/20 00:01:51;;;;;;;7.28;4.95;;;13.10;1.00;;;;;;5040762;28;20151;-85
2022/05/20 00:04:17;;;;;;;8.48;4.70;;;13.10;99.90;;;;;;5030720;28;20051;-85
2022/05/20 00:06:43;;;;;;;8.68;5.20;;;13.10;99.90;;;;;;5066052;28;20041;-84
2022/05/20 00:09:09;;;;;;;10.05;5.50;;;13.10;99.90;;;;;;5030583;28;20533;-84
2022/05/20 00:11:35;;;;;;;7.47;5.20;;;13.00;99.90;;;;;;5044138;28;20037;-84
2022/05/20 00:14:01;;;;;;;9.90;5.82;;;13.00;99.90;;;;;;5053476;28;20451;-85
2022/05/20 00:16:29;;;;;;;9.80;5.38;;;13.10;99.90;;;;;;5032389;28;20115;-85
2022/05/20 00:18:58;;;;;;;6.53;5.22;;;13.10;99.90;;;;;;5039652;28;20194;-84
2022/05/20 00:21:24;;;;;;;9.05;5.50;;;13.10;99.90;;;;;;5024438;28;20047;-85
2022/05/20 00:23:49;;;;;;;10.77;5.75;;;13.10;99.90;;;;;;5024459;28;20033;-84
2022/05/20 00:26:15;;;;;;;9.00;5.50;;;13.10;99.90;;;;;;5045076;28;20037;-84
2022/05/20 00:28:43;;;;;;;9.77;6.35;;;13.10;99.90;;;;;;5044833;28;20061;-84
2022/05/20 00:31:10;;;;;;;8.13;6.00;;;13.00;1.00;;;;;;5050303;28;20120;-85
2022/05/20 00:33:39;;;;;;;9.15;6.45;;;13.10;99.90;;;;;;5022751;28;20040;-84
2022/05/20 00:36:05;;;;;;;8.80;6.32;;;13.10;1.00;;;;;;5043753;28;20045;-84
2022/05/20 00:38:31;;;;;;;9.23;6.72;;;13.10;99.90;;;;;;5049737;28;20166;-84
2022/05/20 00:40:58;;;;;;;9.07;6.97;;;13.00;99.90;;;;;;5028091;28;20041;-84
2022/05/20 00:43:27;;;;;;;11.15;7.72;;;13.00;99.90;;;;;;5044196;28;20460;-85
2022/05/20 00:46:06;;;;;;;10.18;7.60;;;13.00;99.90;;;;;;5028077;28;20383;-84
2022/05/20 00:48:35;;;;;;;14.13;7.90;;;13.00;99.90;;;;;;5044978;28;20055;-84
2022/05/20 00:51:06;;;;;;;10.77;8.00;;;13.00;99.90;;;;;;5052445;28;20049;-85
2022/05/20 00:54:07;;;;;;;13.00;8.30;;;13.00;99.90;;;;;;5052382;28;20055;-84
2022/05/20 00:56:43;;;;;;;11.82;8.98;;;12.90;99.90;;;;;;5042122;28;20101;-84
2022/05/20 00:59:15;;;;;;;14.77;8.75;;;12.90;99.90;;;;;;5062668;28;20444;-84
2022/05/20 01:01:41;;;;;;;9.45;7.90;;;12.80;99.90;;;;;;5041005;28;20090;-85
2022/05/20 01:04:07;;;;;;;12.35;8.82;;;12.80;99.90;;;;;;5025933;28;20550;-84
2022/05/20 01:06:33;;;;;;;13.07;8.27;;;12.60;99.90;;;;;;5041942;28;20561;-84
2022/05/20 01:08:58;;;;;;;10.88;8.23;;;12.60;99.90;;;;;;5024680;28;20256;-84
2022/05/20 01:11:25;;;;;;;11.90;8.43;;;12.50;99.90;;;;;;5026281;28;20040;-85
2022/05/20 01:13:52;;;;;;;11.45;8.80;;;12.40;99.90;;;;;;5041302;28;20094;-85
2022/05/20 01:16:18;;;;;;;11.40;8.45;;;12.40;99.90;;;;;;5025471;28;20037;-84
2022/05/20 01:18:46;;;;;;;12.55;8.45;;;12.30;99.90;;;;;;5020031;28;20155;-84
2022/05/20 01:21:13;;;;;;;10.57;8.63;;;12.30;99.90;;;;;;5025337;28;20045;-85
2022/05/20 01:23:39;;;;;;;11.98;8.68;;;12.10;99.90;;;;;;5041526;28;20040;-85
2022/05/20 01:26:06;;;;;;;12.43;8.70;;;12.10;99.90;;;;;;5026214;28;20094;-84
2022/05/20 01:28:35;;;;;;;12.77;9.35;;;12.00;99.90;;;;;;5039812;28;20053;-84
2022/05/20 01:31:05;;;;;;;10.73;9.00;;;11.90;99.90;;;;;;5042987;28;20408;-85
2022/05/20 01:33:35;;;;;;;14.05;9.50;;;11.80;1.00;;;;;;5049512;28;21620;-85
2022/05/20 01:36:02;;;;;;;16.15;10.95;;;11.80;1.00;;;;;;5024726;28;20523;-85
2022/05/20 01:38:28;;;;;;;15.95;10.68;;;11.90;39.80;;;;;;5056596;28;20114;-84
2022/05/20 01:41:02;;;;;;;15.40;9.93;;;12.00;1.00;;;;;;5027504;28;20493;-85
2022/05/20 01:43:34;;;;;;;14.55;10.05;;;11.90;1.00;;;;;;5068042;28;20056;-83
2022/05/20 01:46:11;;;;;;;14.93;10.55;;;11.90;1.00;;;;;;5056622;28;20110;-84
2022/05/20 01:48:37;;;;;;;12.80;9.68;;;11.90;1.00;;;;;;5048572;28;20044;-85
2022/05/20 01:51:07;;;;;;;11.57;10.25;;;11.90;1.00;;;;;;5019053;28;20445;-85
2022/05/20 01:53:42;;;;;;;13.57;9.93;;;11.90;1.00;;;;;;5023517;28;20052;-85
2022/05/20 01:56:16;;;;;;;14.13;10.32;;;12.00;1.00;;;;;;5049567;28;20036;-85
2022/05/20 01:58:47;;;;;;;12.75;10.00;;;12.00;1.00;;;;;;5018921;28;20413;-85
2022/05/20 02:01:20;;;;;;;12.15;10.05;;;12.00;1.00;;;;;;5028779;28;20519;-85
2022/05/20 02:04:00;;;;;;;15.38;10.40;;;12.00;1.00;;;;;;5036012;28;20084;-84
2022/05/20 02:06:47;;;;;;;15.43;10.32;;;12.00;1.00;;;;;;5020311;28;20025;-85
2022/05/20 02:09:19;;;;;;;12.30;10.30;;;12.00;1.00;;;;;;5020016;28;20053;-84
2022/05/20 02:11:51;;;;;;;13.63;9.55;;;12.00;1.00;;;;;;5022993;28;20041;-85
2022/05/20 02:14:29;;;;;;;16.05;11.30;;;11.90;1.00;;;;;;5038612;28;20550;-85
2022/05/20 02:17:01;;;;;;;15.90;10.75;;;12.00;1.00;;;;;;5028851;28;21227;-85
2022/05/20 02:19:35;;;;;;;14.80;11.13;;;11.90;1.00;;;;;;5053350;28;20036;-84
2022/05/20 02:22:05;;;;;;;11.35;10.10;;;11.80;1.00;;;;;;5041476;28;20101;-84
2022/05/20 02:24:33;;;;;;;13.65;11.48;;;11.70;1.00;;;;;;5021641;28;20152;-84
2022/05/20 02:27:04;;;;;;;16.55;11.40;;;11.60;1.00;;;;;;5042319;28;20032;-84
2022/05/20 02:29:37;;;;;;;14.77;10.75;;;11.60;1.00;;;;;;5018041;28;20052;-84
2022/05/20 02:32:16;;;;;;;16.27;10.57;;;11.50;1.00;;;;;;5047958;28;20041;-85
2022/05/20 02:34:42;;;;;;;15.88;10.68;;;11.40;1.00;;;;;;5044521;28;20067;-84
2022/05/20 02:37:24;;;;;;;12.13;10.90;;;11.40;1.00;;;;;;5047319;28;20086;-84
2022/05/20 02:39:49;;;;;;;14.63;10.57;;;11.20;1.00;;;;;;5047146;28;20049;-84
2022/05/20 02:42:15;;;;;;;14.95;11.57;;;11.20;1.00;;;;;;5027378;28;20044;-85
2022/05/20 02:44:41;;;;;;;13.15;9.93;;;11.10;1.00;;;;;;5047899;28;20064;-84
2022/05/20 02:47:07;;;;;;;17.80;12.30;;;11.10;1.00;;;;;;5037386;28;20128;-83
2022/05/20 02:49:33;;;;;;;15.65;12.93;;;11.10;1.00;;;;;;5039387;28;20488;-84
2022/05/20 02:51:59;;;;;;;12.07;10.10;;;11.00;1.00;;;;;;5037466;28;20412;-85
2022/05/20 02:54:24;;;;;;;10.05;8.38;;;11.00;1.00;;;;;;5022992;28;20043;-84
2022/05/20 02:56:50;;;;;;;10.80;9.30;;;10.90;1.00;;;;;;5023666;28;20053;-85
2022/05/20 03:04:45;;;;;;;;;;;10.80;9.60;;;;;;5063017;28;20383;-84
2022/05/20 03:07:10;;;;;;;15.80;12.20;;;10.70;32.60;;;;;;5020209;28;19999;-83
2022/05/20 03:09:36;;;;;;;14.57;10.13;;;10.70;89.80;;;;;;5048863;28;20037;-84
2022/05/20 03:12:02;;;;;;;11.30;10.10;;;10.60;95.70;;;;;;5042400;28;20070;-84
2022/05/20 03:14:28;;;;;;;17.30;12.20;;;10.60;99.90;;;;;;5023845;28;20089;-84
2022/05/20 03:16:58;;;;;;;14.98;11.45;;;10.60;99.90;;;;;;5016703;28;20454;-85
2022/05/20 03:19:23;;;;;;;18.88;10.98;;;10.50;98.00;;;;;;5046089;28;20049;-84
2022/05/20 03:21:50;;;;;;;12.50;10.55;;;10.50;99.90;;;;;;5035202;28;20041;-84
2022/05/20 03:24:16;;;;;;;20.25;14.35;;;10.40;99.90;;;;;;5042040;28;20059;-84
2022/05/20 03:26:41;;;;;;;15.18;11.38;;;10.40;99.90;;;;;;5015490;28;20052;-84
2022/05/20 03:29:08;;;;;;;16.00;12.95;;;10.40;99.90;;;;;;5035652;28;20292;-85
2022/05/20 03:31:36;;;;;;;17.45;12.95;;;10.40;99.90;;;;;;5038237;28;20128;-84
2022/05/20 03:34:05;;;;;;;20.63;14.98;;;10.40;99.90;;;;;;5040278;28;20043;-84
2022/05/20 03:36:42;;;;;;;21.05;13.75;;;10.40;99.90;;;;;;5024395;28;20076;-84
2022/05/20 03:39:09;;;;;;;14.95;12.60;;;10.40;99.90;;;;;;5029745;28;20083;-84
2022/05/20 03:41:39;;;;;;;17.63;13.57;;;10.30;99.90;;;;;;5019252;28;20064;-84
2022/05/20 03:44:06;;;;;;;30.38;17.73;;;10.30;99.90;;;;;;5017314;28;20402;-84
2022/05/20 03:46:32;;;;;;;17.75;13.65;;;10.30;99.90;;;;;;5040706;28;20040;-84
2022/05/20 03:49:01;;;;;;;15.25;12.80;;;10.30;99.90;;;;;;5035602;28;20036;-84
2022/05/20 03:51:27;;;;;;;15.85;13.98;;;10.30;99.90;;;;;;5020978;28;20135;-84
2022/05/20 03:53:52;;;;;;;21.10;14.88;;;10.30;99.90;;;;;;5019703;28;20033;-84
2022/05/20 03:56:18;;;;;;;23.38;15.82;;;10.30;99.90;;;;;;5049963;28;20094;-84
2022/05/20 03:58:44;;;;;;;15.88;13.82;;;10.40;99.90;;;;;;5036573;28;20809;-84
2022/05/20 04:03:56;;;;;;;19.95;14.75;;;10.40;99.90;;;;;;5035937;28;20507;-84
2022/05/20 04:06:22;;;;;;;17.20;13.82;;;10.50;99.90;;;;;;5046875;28;20044;-84
2022/05/20 04:08:48;;;;;;;19.35;15.93;;;10.50;99.90;;;;;;5019014;28;20033;-85
2022/05/20 04:11:15;;;;;;;18.33;14.27;;;10.50;99.90;;;;;;5047114;28;20041;-84
2022/05/20 04:13:41;;;;;;;16.80;13.45;;;10.60;99.90;;;;;;5035978;28;20570;-84
2022/05/20 04:16:09;;;;;;;20.88;15.38;;;10.60;99.90;;;;;;5030860;28;20047;-85
2022/05/20 04:18:35;;;;;;;18.30;15.02;;;10.70;99.90;;;;;;5048220;28;20505;-84
2022/05/20 04:21:01;;;;;;;25.00;19.00;;;10.60;99.90;;;;;;5052291;28;20128;-84
2022/05/20 04:23:27;;;;;;;23.63;17.85;;;10.80;99.90;;;;;;5020805;28;20392;-84
2022/05/20 04:25:53;;;;;;;20.85;17.40;;;10.90;99.90;;;;;;5042480;28;20041;-83
2022/05/20 04:28:19;;;;;;;22.75;18.05;;;11.00;99.90;;;;;;5024360;28;20979;-84
2022/05/20 04:30:45;;;;;;;28.73;18.63;;;11.00;99.90;;;;;;5020927;28;20079;-83
2022/05/20 04:33:12;;;;;;;29.50;21.05;;;11.20;99.90;;;;;;5039221;28;20050;-84
2022/05/20 04:35:38;;;;;;;47.40;22.30;;;11.20;99.90;;;;;;5036888;28;20497;-85
2022/05/20 04:38:04;;;;;;;28.35;19.55;;;11.30;99.90;;;;;;5022387;28;20040;-83
2022/05/20 04:40:29;;;;;;;27.85;20.27;;;11.30;99.90;;;;;;5036403;28;20335;-84
2022/05/20 04:48:26;;;;;;;32.60;21.75;;;11.50;99.90;;;;;;5037836;28;20477;-83
2022/05/20 04:50:52;;;;;;;30.67;20.58;;;11.70;99.90;;;;;;5053163;28;20051;-84
2022/05/20 04:56:02;;;;;;;23.67;19.70;;;11.70;99.90;;;;;;5042772;28;20534;-84
2022/05/20 04:58:28;;;;;;;27.15;20.83;;;11.80;99.90;;;;;;5024493;28;20041;-84
2022/05/20 05:00:58;;;;;;;27.23;19.88;;;11.80;99.90;;;;;;5023946;28;20033;-84
2022/05/20 05:03:23;;;;;;;22.35;18.35;;;11.90;99.90;;;;;;5043389;28;20036;-85
2022/05/20 05:05:49;;;;;;;24.48;19.10;;;11.90;90.30;;;;;;5029058;28;20065;-84
2022/05/20 05:08:16;;;;;;;23.52;20.00;;;12.10;90.10;;;;;;5059953;28;20070;-84
2022/05/20 05:10:43;;;;;;;19.85;17.40;;;12.10;55.50;;;;;;5024709;28;20078;-84
2022/05/20 05:13:09;;;;;;;23.67;19.25;;;12.20;20.30;;;;;;5023773;28;20044;-84
2022/05/20 05:15:36;;;;;;;25.15;18.30;;;12.30;94.00;;;;;;5022700;28;20040;-83
2022/05/20 05:18:37;;;;;;;20.90;18.30;;;12.40;56.00;;;;;;5029260;28;20447;-84
2022/05/20 05:20:54;;;;;;;23.20;18.17;;;12.40;50.00;;;;;;5032053;28;20126;-84
2022/05/20 05:23:21;;;;;;;19.33;17.42;;;12.60;1.00;;;;;;5043366;28;20028;-84
2022/05/20 05:25:47;;;;;;;20.08;17.05;;;12.60;1.00;;;;;;5024955;28;20021;-84
2022/05/20 05:28:13;;;;;;;20.30;16.52;;;12.70;1.00;;;;;;5041026;28;20049;-84
2022/05/20 05:30:42;;;;;;;18.20;16.17;;;12.80;1.00;;;;;;5025217;28;20400;-84
2022/05/20 05:33:08;;;;;;;19.10;17.08;;;12.80;1.00;;;;;;5041984;28;20347;-84
2022/05/20 05:35:34;;;;;;;18.48;15.32;;;13.00;1.00;;;;;;5024757;28;20048;-84
2022/05/20 05:37:59;;;;;;;19.17;16.60;;;13.00;1.00;;;;;;5047439;28;20343;-84
2022/05/20 05:40:29;;;;;;;20.10;15.18;;;13.20;1.00;;;;;;5026308;28;20236;-84
2022/05/20 05:42:55;;;;;;;19.27;15.60;;;13.20;99.90;;;;;;5036128;28;20040;-84
2022/05/20 05:45:24;;;;;;;20.73;15.10;;;13.40;99.90;;;;;;5017015;28;20070;-84
2022/05/20 05:47:54;;;;;;;19.33;15.20;;;13.30;99.90;;;;;;5038706;28;20047;-84
2022/05/20 05:50:20;;;;;;;20.77;14.43;;;13.50;99.90;;;;;;5049421;28;20125;-84
2022/05/20 05:52:46;;;;;;;16.63;14.85;;;13.50;99.90;;;;;;5038510;28;20507;-84
2022/05/20 05:55:15;;;;;;;17.90;14.10;;;13.60;99.90;;;;;;5040347;28;20040;-84
2022/05/20 05:57:41;;;;;;;19.73;15.35;;;13.70;99.90;;;;;;5065342;28;20036;-84
2022/05/20 06:00:07;;;;;;;20.42;14.77;;;13.80;99.90;;;;;;5041048;28;20048;-84
2022/05/20 06:02:33;;;;;;;15.85;13.45;;;13.90;99.90;;;;;;5064144;28;20033;-84
2022/05/20 06:04:59;;;;;;;17.98;13.85;;;13.90;99.90;;;;;;5023541;28;20550;-84
2022/05/20 06:07:24;;;;;;;16.58;13.95;;;14.10;99.90;;;;;;5055692;28;20482;-84
2022/05/20 06:09:50;;;;;;;14.80;12.68;;;14.20;99.90;;;;;;5050040;28;20126;-84
2022/05/20 06:12:18;;;;;;;14.90;12.40;;;14.30;99.90;;;;;;5038267;28;20125;-85
2022/05/20 06:14:43;;;;;;;15.52;12.32;;;14.30;99.90;;;;;;5052183;28;20424;-84
2022/05/20 06:17:11;;;;;;;15.40;11.70;;;14.60;99.90;;;;;;5017667;28;20064;-84
2022/05/20 06:19:38;;;;;;;16.73;11.65;;;14.60;99.90;;;;;;5059759;28;20448;-84
2022/05/20 06:22:04;;;;;;;15.73;12.60;;;14.50;99.90;;;;;;5057023;28;20045;-84
2022/05/20 06:24:29;;;;;;;16.70;11.98;;;14.60;99.90;;;;;;5051223;28;20106;-84
2022/05/20 06:26:55;;;;;;;13.27;11.30;;;14.80;99.90;;;;;;5019043;28;20290;-83
2022/05/20 06:29:20;;;;;;;14.60;10.95;;;14.90;99.90;;;;;;5023244;28;20064;-84
2022/05/20 06:31:46;;;;;;;14.13;10.55;;;14.80;99.90;;;;;;5038910;28;20112;-83
2022/05/20 06:34:12;;;;;;;12.05;10.20;;;15.00;99.90;;;;;;5048913;28;20048;-84
2022/05/20 06:42:07;;;;;;;12.57;9.63;;;15.50;99.90;;;;;;5054500;28;20456;-84
2022/05/20 06:44:33;;;;;;;14.65;9.52;;;15.30;99.90;;;;;;5053218;28;20155;-84
2022/05/20 06:46:58;;;;;;;12.80;9.35;;;15.50;99.90;;;;;;5049045;28;20673;-84
2022/05/20 06:49:24;;;;;;;13.32;9.32;;;15.80;99.90;;;;;;5038770;28;20552;-84
2022/05/20 06:51:50;;;;;;;10.82;7.53;;;15.70;99.90;;;;;;5022576;28;20032;-83
2022/05/20 06:54:16;;;;;;;10.82;8.30;;;15.70;39.30;;;;;;5020124;28;20048;-84
2022/05/20 06:56:44;;;;;;;11.43;8.88;;;15.60;71.30;;;;;;5046320;28;20109;-84
2022/05/20 06:59:10;;;;;;;11.00;8.55;;;15.80;95.20;;;;;;5046954;28;20788;-84
2022/05/20 07:01:39;;;;;;;10.15;8.45;;;15.90;81.30;;;;;;5023109;28;20055;-84
2022/05/20 07:04:06;;;;;;;10.85;7.88;;;16.20;32.90;;;;;;5018531;28;20676;-84
2022/05/20 07:06:32;;;;;;;11.02;7.40;;;16.10;29.30;;;;;;5026637;28;20059;-84
2022/05/20 07:08:59;;;;;;;9.25;6.70;;;16.20;1.00;;;;;;5021811;28;20041;-84
2022/05/20 07:11:25;;;;;;;9.75;6.38;;;15.90;1.00;;;;;;5023143;28;20044;-84
2022/05/20 07:13:55;;;;;;;8.93;6.13;;;15.50;20.20;;;;;;5024467;28;20058;-84
2022/05/20 07:16:26;;;;;;;8.52;6.57;;;15.50;12.90;;;;;;5039253;28;20044;-84
2022/05/20 07:18:52;;;;;;;9.40;6.40;;;15.60;14.80;;;;;;5017947;28;20127;-84
2022/05/20 07:21:18;;;;;;;7.72;5.22;;;15.80;59.30;;;;;;5023368;28;20580;-84
2022/05/20 07:23:47;;;;;;;7.68;4.07;;;16.10;33.40;;;;;;5049843;28;20033;-84
2022/05/20 07:26:16;;;;;;;7.03;4.00;;;16.40;1.00;;;;;;5022995;28;20168;-84
2022/05/20 07:28:42;;;;;;;8.05;5.32;;;16.60;1.00;;;;;;5037060;28;20068;-84
2022/05/20 07:31:08;;;;;;;10.13;5.35;;;16.60;1.00;;;;;;5033008;28;20045;-84
2022/05/20 07:33:39;;;;;;;9.25;5.47;;;17.10;1.00;;;;;;5019584;28;20503;-84
2022/05/20 07:36:06;;;;;;;8.23;5.53;;;17.10;1.00;;;;;;5041671;28;20174;-84
2022/05/20 07:38:32;;;;;;;7.68;5.72;;;17.10;1.00;;;;;;5033625;28;20045;-84
2022/05/20 07:40:58;;;;;;;11.25;6.63;;;16.50;1.00;;;;;;5020517;28;20079;-84
2022/05/20 07:43:24;;;;;;;9.93;5.78;;;16.60;1.00;;;;;;5063036;28;20037;-84
2022/05/20 07:45:51;;;;;;;11.57;5.72;;;16.70;1.00;;;;;;5027204;28;20434;-84
2022/05/20 07:48:16;;;;;;;9.30;6.05;;;17.00;1.00;;;;;;5021766;28;20091;-84
2022/05/20 07:50:45;;;;;;;10.43;6.15;;;17.20;1.00;;;;;;5022308;28;20045;-85
2022/05/20 07:53:21;;;;;;;9.45;6.05;;;17.60;1.00;;;;;;5020896;28;20399;-83
2022/05/20 07:56:06;;;;;;;8.15;5.32;;;17.50;1.00;;;;;;5046242;28;20146;-85
2022/05/20 07:58:36;;;;;;;9.52;6.43;;;16.90;1.00;;;;;;5019645;28;20052;-84
2022/05/20 08:01:03;;;;;;;8.50;5.60;;;16.80;1.00;;;;;;5041410;28;20460;-84
2022/05/20 08:06:16;;;;;;;9.02;5.88;;;17.00;1.00;;;;;;5039967;28;20075;-84
2022/05/20 08:08:42;;;;;;;10.35;6.70;;;17.50;1.00;;;;;;5042814;28;20102;-84
2022/05/20 08:11:08;;;;;;;6.05;5.07;;;17.50;1.00;;;;;;5023234;28;20029;-83
2022/05/20 08:13:34;;;;;;;9.48;6.50;;;17.40;99.90;;;;;;5022753;28;20037;-85
2022/05/20 08:16:03;;;;;;;8.38;5.95;;;17.60;1.00;;;;;;5041760;28;20460;-84
2022/05/20 08:18:30;;;;;;;9.95;6.57;;;17.40;1.00;;;;;;5034757;28;20168;-85
2022/05/20 08:20:56;;;;;;;8.50;6.05;;;17.50;1.00;;;;;;5035537;28;20073;-84
2022/05/20 08:23:22;;;;;;;10.93;6.22;;;17.20;99.90;;;;;;5047332;28;20029;-84
2022/05/20 08:25:48;;;;;;;9.23;6.35;;;17.50;99.90;;;;;;5056930;28;20063;-84
2022/05/20 08:28:14;;;;;;;8.60;6.28;;;17.20;99.90;;;;;;5051637;28;20609;-84
2022/05/20 08:30:40;;;;;;;8.35;6.10;;;17.60;99.90;;;;;;5024652;28;20040;-84
2022/05/20 08:33:06;;;;;;;8.65;6.13;;;18.10;99.90;;;;;;5042625;28;20032;-84
2022/05/20 08:35:32;;;;;;;10.27;5.82;;;18.20;99.90;;;;;;5026960;28;20077;-84
2022/05/20 08:37:57;;;;;;;8.63;5.97;;;18.00;99.90;;;;;;5025965;28;20399;-84
2022/05/20 08:40:29;;;;;;;7.78;4.93;;;18.20;99.90;;;;;;5022736;28;20399;-84
2022/05/20 08:42:58;;;;;;;8.30;5.50;;;18.00;99.90;;;;;;5058274;28;20048;-84
2022/05/20 08:45:27;;;;;;;11.30;5.88;;;18.40;99.90;;;;;;5026679;28;20036;-85
2022/05/20 08:48:11;;;;;;;9.50;5.25;;;18.40;99.90;;;;;;5057578;28;20064;-83
2022/05/20 08:50:52;;;;;;;8.77;4.82;;;18.40;99.90;;;;;;5021860;28;20048;-83
2022/05/20 08:53:24;;;;;;;6.85;4.97;;;18.40;99.90;;;;;;5038908;28;20047;-83
2022/05/20 08:55:50;;;;;;;5.60;4.07;;;18.70;99.90;;;;;;5026809;28;20056;-83
2022/05/20 08:58:21;;;;;;;6.05;4.22;;;18.70;99.90;;;;;;5028260;28;20187;-82
2022/05/20 09:00:47;;;;;;;5.70;3.60;;;18.40;99.90;;;;;;5050696;28;20045;-82
2022/05/20 09:03:13;;;;;;;5.95;3.88;;;18.70;99.90;;;;;;5024271;28;20507;-83
2022/05/20 09:05:42;;;;;;;7.57;3.67;;;18.90;99.90;;;;;;5045407;28;20040;-83
2022/05/20 09:08:17;;;;;;;9.02;5.15;;;18.90;99.90;;;;;;5021220;28;20037;-83
2022/05/20 09:10:53;;;;;;;9.25;5.68;;;18.70;99.90;;;;;;5038513;28;20500;-83
2022/05/20 09:16:23;;;;;;;7.43;5.40;;;19.30;99.90;;;;;;5074476;28;20120;-83
2022/05/20 09:19:03;;;;;;;8.48;5.53;;;19.20;99.90;;;;;;5031929;28;20093;-83
2022/05/20 09:21:33;;;;;;;6.68;4.55;;;19.60;99.90;;;;;;5037380;28;20045;-83
2022/05/20 09:24:04;;;;;;;8.93;4.40;;;19.60;99.90;;;;;;5021782;28;20136;-83
2022/05/20 09:26:38;;;;;;;8.55;4.90;;;19.70;99.90;;;;;;5024882;28;20064;-83
2022/05/20 09:29:31;;;;;;;6.40;3.97;;;19.90;99.90;;;;;;5041542;28;20041;-83
2022/05/20 09:32:00;;;;;;;5.85;3.97;;;20.50;99.90;;;;;;5022648;28;20090;-83
2022/05/20 09:34:26;;;;;;;6.35;4.00;;;20.70;99.90;;;;;;5023859;28;20037;-83
2022/05/20 09:37:16;;;;;;;6.07;4.15;;;20.10;99.90;;;;;;5059888;28;20169;-83
2022/05/20 09:39:48;;;;;;;6.53;3.50;;;19.50;99.90;;;;;;5055518;28;20040;-83
2022/05/20 09:42:20;;;;;;;4.22;2.40;;;20.10;99.90;;;;;;5020261;28;20567;-83
2022/05/20 09:44:52;;;;;;;5.47;2.97;;;20.30;99.90;;;;;;5054106;28;20320;-83
2022/05/20 09:47:31;;;;;;;4.18;2.45;;;20.10;99.90;;;;;;5048805;28;20038;-83
2022/05/20 09:50:22;;;;;;;5.43;2.67;;;19.90;99.90;;;;;;5060262;28;20083;-83
2022/05/20 09:52:53;;;;;;;6.47;2.47;;;20.00;99.90;;;;;;5016265;28;20072;-83
2022/05/20 09:55:29;;;;;;;3.80;2.10;;;20.00;99.90;;;;;;5050263;28;20049;-83
2022/05/20 09:57:57;;;;;;;3.72;2.47;;;20.00;99.90;;;;;;5066478;28;20121;-83
2022/05/20 10:00:32;;;;;;;5.28;2.90;;;20.20;99.90;;;;;;5037029;28;20114;-83
2022/05/20 10:03:10;;;;;;;5.78;3.30;;;20.30;99.90;;;;;;5028835;28;20049;-83
2022/05/20 10:05:54;;;;;;;5.57;2.97;;;20.70;99.90;;;;;;5021263;28;20033;-83
2022/05/20 10:08:42;;;;;;;4.85;2.50;;;20.40;99.90;;;;;;5050620;28;20037;-83
2022/05/20 10:11:38;;;;;;;3.97;2.90;;;20.40;99.90;;;;;;5052915;28;20037;-83
2022/05/20 10:14:14;;;;;;;7.82;3.90;;;19.80;99.90;;;;;;5015717;28;20106;-83
2022/05/20 10:17:02;;;;;;;4.80;3.50;;;20.20;99.90;;;;;;5041929;28;20047;-83
2022/05/20 10:19:42;;;;;;;4.38;3.28;;;20.10;99.90;;;;;;5034065;28;20041;-83
2022/05/20 10:22:17;;;;;;;4.82;3.17;;;20.00;99.90;;;;;;5067168;28;20044;-83
2022/05/20 10:24:54;;;;;;;4.57;3.40;;;20.40;99.90;;;;;;5065043;28;20123;-83
2022/05/20 10:27:46;;;;;;;4.60;3.20;;;20.80;99.90;;;;;;5036184;28;20037;-83
2022/05/20 10:33:07;;;;;;;5.68;3.00;;;20.40;99.90;;;;;;5031745;28;20097;-83
2022/05/20 10:36:10;;;;;;;5.30;3.15;;;20.80;99.90;;;;;;5069104;28;20111;-83
2022/05/20 10:38:57;;;;;;;4.43;2.72;;;20.60;99.90;;;;;;5021027;28;20040;-84
2022/05/20 10:41:35;;;;;;;5.22;2.70;;;20.50;99.90;;;;;;5029954;28;20048;-83
2022/05/20 10:50:25;;;;;;;4.03;2.60;;;20.90;99.90;;;;;;5023013;28;20265;-83
2022/05/20 10:53:19;;;;;;;4.95;2.35;;;20.60;99.90;;;;;;5020085;28;20048;-83
2022/05/20 10:56:06;;;;;;;5.25;2.70;;;21.10;99.90;;;;;;5023942;28;20403;-83
2022/05/20 10:58:54;;;;;;;6.20;2.30;;;21.50;99.90;;;;;;5064132;28;20186;-83
2022/05/20 11:01:45;;;;;;;3.83;2.78;;;21.40;99.90;;;;;;5020473;28;20063;-83
2022/05/20 11:04:31;;;;;;;6.93;2.88;;;20.90;99.90;;;;;;5037570;28;20041;-83
2022/05/20 11:07:09;;;;;;;4.47;2.65;;;21.10;99.90;;;;;;5019691;28;20049;-83
2022/05/20 11:09:40;;;;;;;6.72;3.10;;;21.70;99.90;;;;;;5022245;28;20047;-83
2022/05/20 11:12:11;;;;;;;4.95;2.88;;;22.10;99.90;;;;;;5024358;28;20374;-83
2022/05/20 11:15:03;;;;;;;5.65;2.90;;;22.10;99.90;;;;;;5025070;28;20055;-83
2022/05/20 11:18:14;;;;;;;4.53;2.50;;;22.30;99.90;;;;;;5023531;28;20045;-83
2022/05/20 11:20:58;;;;;;;6.63;3.13;;;22.00;99.90;;;;;;5033785;28;20329;-83
2022/05/20 11:23:54;;;;;;;6.15;3.83;;;22.40;99.90;;;;;;5025726;28;20029;-84
2022/05/20 11:26:54;;;;;;;6.43;4.57;;;22.70;99.90;;;;;;5048438;28;20598;-83
2022/05/20 11:29:46;;;;;;;9.02;4.40;;;22.40;99.90;;;;;;5054407;28;20087;-84
2022/05/20 11:32:36;;;;;;;6.60;4.10;;;22.80;99.90;;;;;;5016905;28;20189;-83
2022/05/20 11:35:29;;;;;;;6.05;3.40;;;22.70;99.90;;;;;;5035488;28;20038;-83
2022/05/20 11:38:03;;;;;;;7.53;3.75;;;23.10;99.90;;;;;;5036012;28;20052;-84
2022/05/20 11:40:40;;;;;;;5.15;3.78;;;23.30;99.90;;;;;;5059873;28;20112;-83
2022/05/20 11:43:30;;;;;;;8.23;4.60;;;23.10;99.90;;;;;;5019436;28;20055;-83
2022/05/20 11:46:08;;;;;;;4.80;4.13;;;22.90;99.90;;;;;;5044530;28;20076;-83
2022/05/20 11:48:53;;;;;;;5.68;4.50;;;23.40;99.90;;;;;;5041049;28;20045;-83
2022/05/20 11:51:43;;;;;;;5.93;4.45;;;23.00;99.90;;;;;;5037149;28;20049;-83
2022/05/20 11:54:15;;;;;;;7.97;4.00;;;23.30;99.90;;;;;;5021091;28;20045;-83
2022/05/20 11:56:53;;;;;;;5.80;4.22;;;23.80;99.90;;;;;;5042145;28;20028;-84
2022/05/20 11:59:22;;;;;;;4.28;3.63;;;23.10;99.90;;;;;;5028786;28;20056;-83
2022/05/20 12:01:52;;;;;;;5.00;3.63;;;23.40;99.90;;;;;;5043536;28;20108;-83
2022/05/20 12:04:20;;;;;;;4.95;3.55;;;23.80;99.90;;;;;;5041606;28;20131;-83
2022/05/20 12:06:49;;;;;;;4.72;3.20;;;23.50;99.90;;;;;;5048905;28;20489;-83
2022/05/20 12:09:44;;;;;;;3.40;2.65;;;23.40;99.90;;;;;;5025538;28;20103;-83
2022/05/20 12:12:24;;;;;;;5.40;2.78;;;22.80;99.90;;;;;;5012032;28;20046;-83
2022/05/20 12:14:56;;;;;;;5.78;2.63;;;23.10;99.90;;;;;;5022191;28;20040;-83
2022/05/20 12:17:31;;;;;;;5.40;3.80;;;23.50;99.90;;;;;;5023987;28;20041;-83
2022/05/20 12:25:57;;;;;;;5.65;3.42;;;22.90;99.90;;;;;;5034817;28;20219;-84
2022/05/20 12:28:23;;;;;;;4.28;3.30;;;23.00;99.90;;;;;;5024958;28;20372;-83
2022/05/20 12:31:13;;;;;;;4.07;3.20;;;22.50;99.90;;;;;;5030651;28;20036;-83
2022/05/20 12:34:03;;;;;;;4.57;3.40;;;22.70;99.90;;;;;;5025835;28;20445;-83
2022/05/20 12:36:29;;;;;;;3.50;3.05;;;23.10;99.90;;;;;;5041174;28;20443;-83
2022/05/20 12:39:07;;;;;;;5.05;2.65;;;23.20;99.90;;;;;;5053359;28;20033;-84
2022/05/20 12:41:55;;;;;;;6.10;2.92;;;23.20;99.90;;;;;;5062652;28;20224;-83
2022/05/20 12:44:20;;;;;;;3.80;2.80;;;23.20;99.90;;;;;;5024037;28;20898;-83
2022/05/20 12:47:05;;;;;;;4.63;3.05;;;23.60;99.90;;;;;;5026944;28;20259;-83
2022/05/20 12:49:46;;;;;;;4.57;2.85;;;23.40;99.90;;;;;;5025180;28;20270;-83
2022/05/20 12:52:18;;;;;;;7.10;3.83;;;23.50;99.90;;;;;;5026420;28;20045;-84
2022/05/20 12:54:50;;;;;;;12.57;7.40;;;23.80;99.90;;;;;;5075580;28;20194;-84
2022/05/20 12:57:28;;;;;;;5.28;3.20;;;23.50;99.90;;;;;;5070068;28;20349;-83
2022/05/20 13:00:07;;;;;;;7.80;4.63;;;23.30;99.90;;;;;;5068719;28;20094;-84
2022/05/20 13:02:37;;;;;;;6.90;4.60;;;23.20;99.90;;;;;;5045405;28;20090;-84
2022/05/20 13:05:05;;;;;;;4.82;3.67;;;23.00;99.90;;;;;;5027958;28;20443;-83
2022/05/20 13:07:34;;;;;;;6.00;5.32;;;22.80;99.90;;;;;;5026019;28;20060;-84
2022/05/20 13:09:59;;;;;;;6.57;5.97;;;22.60;99.90;;;;;;5057158;28;20048;-83
2022/05/20 13:12:25;;;;;;;7.03;5.60;;;22.10;99.90;;;;;;5064988;28;20089;-84
2022/05/20 13:15:03;;;;;;;6.43;5.80;;;21.90;99.90;;;;;;5047171;28;20475;-83
2022/05/20 13:17:32;;;;;;;5.85;4.90;;;21.70;99.90;;;;;;5061354;28;20429;-83
2022/05/20 13:19:59;;;;;;;7.78;4.72;;;21.30;99.90;;;;;;5073379;28;20041;-83
2022/05/20 13:22:28;;;;;;;5.35;3.80;;;21.20;99.90;;;;;;5023449;28;20037;-83
2022/05/20 13:24:57;;;;;;;4.03;3.47;;;20.80;99.90;;;;;;5029663;28;20841;-83
2022/05/20 13:27:23;;;;;;;3.70;3.15;;;20.70;99.90;;;;;;5055700;28;20116;-83
2022/05/20 13:29:51;;;;;;;7.18;5.07;;;20.60;99.90;;;;;;5048183;28;20527;-84
2022/05/20 13:32:21;;;;;;;5.38;4.80;;;20.40;99.90;;;;;;5027855;28;20514;-83
2022/05/20 13:34:51;;;;;;;7.40;5.93;;;20.40;99.90;;;;;;5027697;28;20036;-83
2022/05/20 13:37:23;;;;;;;7.10;5.88;;;20.20;99.90;;;;;;5034811;28;20047;-84
2022/05/20 13:39:53;;;;;;;7.10;6.32;;;19.90;99.90;;;;;;5046617;28;20103;-84
2022/05/20 13:42:21;;;;;;;6.68;5.97;;;19.90;99.90;;;;;;5028411;28;20021;-84
2022/05/20 13:44:46;;;;;;;7.05;6.18;;;19.90;99.90;;;;;;5042995;28;20033;-83